sensor_id;sensor_type;location;lat;lon;timestamp;P1;durP1;ratioP1;P2;durP2;ratioP2
51048;SDS011;37084;55.228;36.450;2023-09-12T00:01:19;19.85;;;9.07;;
51048;SDS011;37084;55.228;36.450;2023-09-12T00:04:20;21.10;;;9.77;;
51048;SDS011;37084;55.228;36.450;2023-09-12T00:07:22;20.70;;;9.48;;
51048;SDS011;37084;55.228;36.450;2023-09-12T00:10:23;22.23;;;10.52;;
51048;SDS011;37084;55.228;36.450;2023-09-12T00:13:24;23.33;;;10.95;;
51048;SDS011;37084;55.228;36.450;2023-09-12T00:16:25;22.27;;;9.75;;
51048;SDS011;37084;55.228;36.450;2023-09-12T00:19:26;21.35;;;9.90;;
51048;SDS011;37084;55.228;36.450;2023-09-12T00:22:28;20.65;;;9.25;;
51048;SDS011;37084;55.228;36.450;2023-09-12T00:25:29;17.95;;;9.40;;
51048;SDS011;37084;55.228;36.450;2023-09-12T00:28:30;18.40;;;8.98;;
51048;SDS011;37084;55.228;36.450;2023-09-12T00:31:31;18.77;;;9.32;;
51048;SDS011;37084;55.228;36.450;2023-09-12T00:34:32;19.55;;;9.60;;
51048;SDS011;37084;55.228;36.450;2023-09-12T00:37:33;16.67;;;8.68;;
51048;SDS011;37084;55.228;36.450;2023-09-12T00:40:35;18.58;;;8.98;;
51048;SDS011;37084;55.228;36.450;2023-09-12T00:43:36;19.50;;;8.77;;
51048;SDS011;37084;55.228;36.450;2023-09-12T00:46:37;18.30;;;8.80;;
51048;SDS011;37084;55.228;36.450;2023-09-12T00:49:39;20.05;;;9.07;;
51048;SDS011;37084;55.228;36.450;2023-09-12T00:52:40;17.88;;;8.77;;
51048;SDS011;37084;55.228;36.450;2023-09-12T00:55:42;16.10;;;8.68;;
51048;SDS011;37084;55.228;36.450;2023-09-12T00:58:47;16.45;;;7.22;;
51048;SDS011;37084;55.228;36.450;2023-09-12T01:01:51;16.83;;;8.18;;
51048;SDS011;37084;55.228;36.450;2023-09-12T01:04:52;16.15;;;8.05;;
51048;SDS011;37084;55.228;36.450;2023-09-12T01:07:54;19.63;;;8.65;;
51048;SDS011;37084;55.228;36.450;2023-09-12T01:10:55;15.23;;;8.18;;
51048;SDS011;37084;55.228;36.450;2023-09-12T01:13:57;20.35;;;8.93;;
51048;SDS011;37084;55.228;36.450;2023-09-12T01:16:58;19.02;;;9.70;;
51048;SDS011;37084;55.228;36.450;2023-09-12T01:20:01;18.50;;;9.35;;
51048;SDS011;37084;55.228;36.450;2023-09-12T01:26:30;19.67;;;9.13;;
51048;SDS011;37084;55.228;36.450;2023-09-12T01:29:53;21.40;;;9.32;;
51048;SDS011;37084;55.228;36.450;2023-09-12T01:32:58;15.38;;;8.05;;
51048;SDS011;37084;55.228;36.450;2023-09-12T01:36:00;22.25;;;8.65;;
51048;SDS011;37084;55.228;36.450;2023-09-12T01:39:01;17.08;;;8.48;;
51048;SDS011;37084;55.228;36.450;2023-09-12T01:42:03;19.23;;;8.13;;
51048;SDS011;37084;55.228;36.450;2023-09-12T01:45:06;18.25;;;9.25;;
51048;SDS011;37084;55.228;36.450;2023-09-12T01:51:10;13.80;;;7.80;;
51048;SDS011;37084;55.228;36.450;2023-09-12T01:54:12;15.48;;;7.40;;
51048;SDS011;37084;55.228;36.450;2023-09-12T01:57:13;17.83;;;8.35;;
51048;SDS011;37084;55.228;36.450;2023-09-12T02:00:14;19.52;;;8.50;;
51048;SDS011;37084;55.228;36.450;2023-09-12T02:03:19;15.52;;;8.38;;
51048;SDS011;37084;55.228;36.450;2023-09-12T02:06:20;17.65;;;8.27;;
51048;SDS011;37084;55.228;36.450;2023-09-12T02:09:21;17.73;;;8.68;;
51048;SDS011;37084;55.228;36.450;2023-09-12T02:12:22;22.88;;;9.15;;
51048;SDS011;37084;55.228;36.450;2023-09-12T02:15:24;22.23;;;10.05;;
51048;SDS011;37084;55.228;36.450;2023-09-12T02:18:25;19.10;;;9.75;;
51048;SDS011;37084;55.228;36.450;2023-09-12T02:21:26;16.50;;;8.20;;
51048;SDS011;37084;55.228;36.450;2023-09-12T02:24:27;16.77;;;8.43;;
51048;SDS011;37084;55.228;36.450;2023-09-12T02:27:29;16.58;;;8.23;;
51048;SDS011;37084;55.228;36.450;2023-09-12T02:30:30;19.90;;;9.15;;
51048;SDS011;37084;55.228;36.450;2023-09-12T02:33:31;21.00;;;9.13;;
51048;SDS011;37084;55.228;36.450;2023-09-12T02:36:32;20.10;;;9.30;;
51048;SDS011;37084;55.228;36.450;2023-09-12T02:39:34;22.42;;;9.32;;
51048;SDS011;37084;55.228;36.450;2023-09-12T02:42:35;22.70;;;9.68;;
51048;SDS011;37084;55.228;36.450;2023-09-12T02:45:37;21.67;;;9.00;;
51048;SDS011;37084;55.228;36.450;2023-09-12T02:48:38;22.77;;;9.60;;
51048;SDS011;37084;55.228;36.450;2023-09-12T02:51:39;26.60;;;10.18;;
51048;SDS011;37084;55.228;36.450;2023-09-12T02:54:40;28.83;;;11.80;;
51048;SDS011;37084;55.228;36.450;2023-09-12T02:57:41;28.42;;;10.20;;
51048;SDS011;37084;55.228;36.450;2023-09-12T03:00:42;23.48;;;10.32;;
51048;SDS011;37084;55.228;36.450;2023-09-12T03:03:47;29.75;;;11.77;;
51048;SDS011;37084;55.228;36.450;2023-09-12T03:06:51;29.17;;;11.82;;
51048;SDS011;37084;55.228;36.450;2023-09-12T03:09:52;27.52;;;11.77;;
51048;SDS011;37084;55.228;36.450;2023-09-12T03:12:53;26.48;;;11.48;;
51048;SDS011;37084;55.228;36.450;2023-09-12T03:15:55;31.27;;;12.80;;
51048;SDS011;37084;55.228;36.450;2023-09-12T03:18:56;34.03;;;12.88;;
51048;SDS011;37084;55.228;36.450;2023-09-12T03:21:57;28.52;;;11.10;;
51048;SDS011;37084;55.228;36.450;2023-09-12T03:24:59;30.23;;;12.25;;
51048;SDS011;37084;55.228;36.450;2023-09-12T03:28:00;30.00;;;11.45;;
51048;SDS011;37084;55.228;36.450;2023-09-12T03:31:08;30.30;;;11.65;;
51048;SDS011;37084;55.228;36.450;2023-09-12T03:34:15;26.77;;;11.32;;
51048;SDS011;37084;55.228;36.450;2023-09-12T03:37:17;29.80;;;11.27;;
51048;SDS011;37084;55.228;36.450;2023-09-12T03:40:18;24.98;;;11.65;;
51048;SDS011;37084;55.228;36.450;2023-09-12T03:43:19;27.15;;;11.40;;
51048;SDS011;37084;55.228;36.450;2023-09-12T03:46:21;25.27;;;11.48;;
51048;SDS011;37084;55.228;36.450;2023-09-12T03:49:22;30.35;;;11.73;;
51048;SDS011;37084;55.228;36.450;2023-09-12T03:52:24;30.88;;;11.98;;
51048;SDS011;37084;55.228;36.450;2023-09-12T03:55:25;29.13;;;11.30;;
51048;SDS011;37084;55.228;36.450;2023-09-12T03:58:26;23.88;;;11.77;;
51048;SDS011;37084;55.228;36.450;2023-09-12T04:01:28;24.83;;;11.25;;
51048;SDS011;37084;55.228;36.450;2023-09-12T04:04:29;25.65;;;11.18;;
51048;SDS011;37084;55.228;36.450;2023-09-12T04:07:30;27.98;;;11.75;;
51048;SDS011;37084;55.228;36.450;2023-09-12T04:10:31;27.92;;;11.88;;
51048;SDS011;37084;55.228;36.450;2023-09-12T04:13:33;29.30;;;13.20;;
51048;SDS011;37084;55.228;36.450;2023-09-12T04:16:34;25.73;;;11.90;;
51048;SDS011;37084;55.228;36.450;2023-09-12T04:19:35;31.25;;;11.98;;
51048;SDS011;37084;55.228;36.450;2023-09-12T04:22:37;23.73;;;10.73;;
51048;SDS011;37084;55.228;36.450;2023-09-12T04:25:41;26.35;;;10.82;;
51048;SDS011;37084;55.228;36.450;2023-09-12T04:28:46;24.15;;;10.82;;
51048;SDS011;37084;55.228;36.450;2023-09-12T04:31:47;21.13;;;9.55;;
51048;SDS011;37084;55.228;36.450;2023-09-12T04:34:49;22.27;;;10.18;;
51048;SDS011;37084;55.228;36.450;2023-09-12T04:37:52;23.20;;;10.88;;
51048;SDS011;37084;55.228;36.450;2023-09-12T04:40:54;23.67;;;10.15;;
51048;SDS011;37084;55.228;36.450;2023-09-12T04:43:57;21.23;;;9.88;;
51048;SDS011;37084;55.228;36.450;2023-09-12T04:46:59;17.13;;;8.95;;
51048;SDS011;37084;55.228;36.450;2023-09-12T04:50:01;16.50;;;8.82;;
51048;SDS011;37084;55.228;36.450;2023-09-12T04:53:04;16.98;;;9.32;;
51048;SDS011;37084;55.228;36.450;2023-09-12T04:56:05;17.75;;;9.20;;
51048;SDS011;37084;55.228;36.450;2023-09-12T04:59:07;18.00;;;10.10;;
51048;SDS011;37084;55.228;36.450;2023-09-12T05:02:09;17.08;;;8.68;;
51048;SDS011;37084;55.228;36.450;2023-09-12T05:05:11;16.90;;;8.18;;
51048;SDS011;37084;55.228;36.450;2023-09-12T05:08:13;18.75;;;9.07;;
51048;SDS011;37084;55.228;36.450;2023-09-12T05:11:14;16.38;;;9.15;;
51048;SDS011;37084;55.228;36.450;2023-09-12T05:14:16;19.08;;;9.85;;
51048;SDS011;37084;55.228;36.450;2023-09-12T05:17:17;20.05;;;9.52;;
51048;SDS011;37084;55.228;36.450;2023-09-12T05:20:18;18.17;;;9.70;;
51048;SDS011;37084;55.228;36.450;2023-09-12T05:23:19;16.02;;;9.43;;
51048;SDS011;37084;55.228;36.450;2023-09-12T05:26:21;15.55;;;8.60;;
51048;SDS011;37084;55.228;36.450;2023-09-12T05:29:22;16.92;;;9.85;;
51048;SDS011;37084;55.228;36.450;2023-09-12T05:32:23;16.23;;;9.02;;
51048;SDS011;37084;55.228;36.450;2023-09-12T05:35:25;15.80;;;9.35;;
51048;SDS011;37084;55.228;36.450;2023-09-12T05:38:26;16.90;;;8.43;;
51048;SDS011;37084;55.228;36.450;2023-09-12T05:41:28;19.63;;;9.68;;
51048;SDS011;37084;55.228;36.450;2023-09-12T05:44:30;16.70;;;8.52;;
51048;SDS011;37084;55.228;36.450;2023-09-12T05:47:33;17.23;;;8.45;;
51048;SDS011;37084;55.228;36.450;2023-09-12T05:50:36;14.85;;;7.93;;
51048;SDS011;37084;55.228;36.450;2023-09-12T05:53:41;16.17;;;8.73;;
51048;SDS011;37084;55.228;36.450;2023-09-12T05:56:42;17.25;;;8.88;;
51048;SDS011;37084;55.228;36.450;2023-09-12T05:59:44;15.35;;;8.68;;
51048;SDS011;37084;55.228;36.450;2023-09-12T06:02:46;17.25;;;8.82;;
51048;SDS011;37084;55.228;36.450;2023-09-12T06:05:48;17.85;;;8.80;;
51048;SDS011;37084;55.228;36.450;2023-09-12T06:08:51;15.52;;;8.60;;
51048;SDS011;37084;55.228;36.450;2023-09-12T06:11:54;14.68;;;8.18;;
51048;SDS011;37084;55.228;36.450;2023-09-12T06:14:56;17.30;;;7.90;;
51048;SDS011;37084;55.228;36.450;2023-09-12T06:17:58;17.15;;;8.73;;
51048;SDS011;37084;55.228;36.450;2023-09-12T06:21:00;15.95;;;8.27;;
51048;SDS011;37084;55.228;36.450;2023-09-12T06:24:08;15.65;;;8.40;;
51048;SDS011;37084;55.228;36.450;2023-09-12T06:27:15;15.20;;;9.00;;
51048;SDS011;37084;55.228;36.450;2023-09-12T06:30:19;14.02;;;8.23;;
51048;SDS011;37084;55.228;36.450;2023-09-12T06:33:25;18.13;;;8.15;;
51048;SDS011;37084;55.228;36.450;2023-09-12T06:36:27;14.57;;;8.32;;
51048;SDS011;37084;55.228;36.450;2023-09-12T06:39:32;16.20;;;8.15;;
51048;SDS011;37084;55.228;36.450;2023-09-12T06:42:34;17.85;;;8.43;;
51048;SDS011;37084;55.228;36.450;2023-09-12T06:45:36;16.33;;;8.57;;
51048;SDS011;37084;55.228;36.450;2023-09-12T06:48:39;14.43;;;8.35;;
51048;SDS011;37084;55.228;36.450;2023-09-12T06:51:40;13.60;;;7.45;;
51048;SDS011;37084;55.228;36.450;2023-09-12T06:54:41;14.45;;;7.60;;
51048;SDS011;37084;55.228;36.450;2023-09-12T06:57:43;14.82;;;8.57;;
51048;SDS011;37084;55.228;36.450;2023-09-12T07:00:46;14.38;;;8.20;;
51048;SDS011;37084;55.228;36.450;2023-09-12T07:03:48;13.48;;;8.48;;
51048;SDS011;37084;55.228;36.450;2023-09-12T07:06:49;13.30;;;8.43;;
51048;SDS011;37084;55.228;36.450;2023-09-12T07:09:51;14.63;;;8.63;;
51048;SDS011;37084;55.228;36.450;2023-09-12T07:12:54;14.98;;;7.90;;
51048;SDS011;37084;55.228;36.450;2023-09-12T07:15:56;12.35;;;7.93;;
51048;SDS011;37084;55.228;36.450;2023-09-12T07:18:57;16.55;;;8.35;;
51048;SDS011;37084;55.228;36.450;2023-09-12T07:21:58;15.73;;;7.85;;
51048;SDS011;37084;55.228;36.450;2023-09-12T07:25:01;10.57;;;7.45;;
51048;SDS011;37084;55.228;36.450;2023-09-12T07:28:03;11.13;;;6.78;;
51048;SDS011;37084;55.228;36.450;2023-09-12T07:31:04;13.57;;;7.38;;
51048;SDS011;37084;55.228;36.450;2023-09-12T07:34:06;12.23;;;8.10;;
51048;SDS011;37084;55.228;36.450;2023-09-12T07:37:08;15.95;;;8.35;;
51048;SDS011;37084;55.228;36.450;2023-09-12T07:40:09;12.25;;;7.82;;
51048;SDS011;37084;55.228;36.450;2023-09-12T07:43:11;12.77;;;7.78;;
51048;SDS011;37084;55.228;36.450;2023-09-12T07:46:13;12.30;;;8.10;;
51048;SDS011;37084;55.228;36.450;2023-09-12T07:49:16;11.45;;;7.72;;
51048;SDS011;37084;55.228;36.450;2023-09-12T07:52:17;12.23;;;7.65;;
51048;SDS011;37084;55.228;36.450;2023-09-12T07:55:19;11.52;;;7.85;;
51048;SDS011;37084;55.228;36.450;2023-09-12T07:58:20;12.30;;;7.95;;
51048;SDS011;37084;55.228;36.450;2023-09-12T08:01:25;11.38;;;8.23;;
51048;SDS011;37084;55.228;36.450;2023-09-12T08:04:28;13.13;;;8.18;;
51048;SDS011;37084;55.228;36.450;2023-09-12T08:07:30;14.30;;;8.00;;
51048;SDS011;37084;55.228;36.450;2023-09-12T08:10:31;11.48;;;7.78;;
51048;SDS011;37084;55.228;36.450;2023-09-12T08:13:33;12.65;;;8.50;;
51048;SDS011;37084;55.228;36.450;2023-09-12T08:16:34;13.05;;;7.85;;
51048;SDS011;37084;55.228;36.450;2023-09-12T08:19:35;10.90;;;8.23;;
51048;SDS011;37084;55.228;36.450;2023-09-12T08:22:37;11.10;;;7.85;;
51048;SDS011;37084;55.228;36.450;2023-09-12T08:25:40;12.90;;;8.82;;
51048;SDS011;37084;55.228;36.450;2023-09-12T08:28:41;11.45;;;8.50;;
51048;SDS011;37084;55.228;36.450;2023-09-12T08:31:42;12.68;;;8.18;;
51048;SDS011;37084;55.228;36.450;2023-09-12T08:34:45;12.80;;;8.32;;
51048;SDS011;37084;55.228;36.450;2023-09-12T08:37:46;12.88;;;7.88;;
51048;SDS011;37084;55.228;36.450;2023-09-12T08:40:49;11.27;;;8.30;;
51048;SDS011;37084;55.228;36.450;2023-09-12T08:43:53;13.18;;;9.35;;
51048;SDS011;37084;55.228;36.450;2023-09-12T08:46:55;12.90;;;8.55;;
51048;SDS011;37084;55.228;36.450;2023-09-12T08:49:58;11.80;;;8.73;;
51048;SDS011;37084;55.228;36.450;2023-09-12T08:52:59;12.32;;;8.52;;
51048;SDS011;37084;55.228;36.450;2023-09-12T08:56:00;11.10;;;8.52;;
51048;SDS011;37084;55.228;36.450;2023-09-12T08:59:04;13.40;;;8.07;;
51048;SDS011;37084;55.228;36.450;2023-09-12T09:02:09;11.57;;;8.27;;
51048;SDS011;37084;55.228;36.450;2023-09-12T09:05:11;12.48;;;8.85;;
51048;SDS011;37084;55.228;36.450;2023-09-12T09:08:13;13.10;;;9.18;;
51048;SDS011;37084;55.228;36.450;2023-09-12T09:11:30;12.45;;;8.60;;
51048;SDS011;37084;55.228;36.450;2023-09-12T09:14:32;14.10;;;8.93;;
51048;SDS011;37084;55.228;36.450;2023-09-12T09:17:34;12.55;;;9.10;;
51048;SDS011;37084;55.228;36.450;2023-09-12T09:20:35;12.80;;;9.18;;
51048;SDS011;37084;55.228;36.450;2023-09-12T09:23:46;11.18;;;8.25;;
51048;SDS011;37084;55.228;36.450;2023-09-12T09:26:50;12.07;;;8.63;;
51048;SDS011;37084;55.228;36.450;2023-09-12T09:30:03;13.07;;;9.65;;
51048;SDS011;37084;55.228;36.450;2023-09-12T09:33:08;10.98;;;8.65;;
51048;SDS011;37084;55.228;36.450;2023-09-12T09:36:14;13.75;;;8.50;;
51048;SDS011;37084;55.228;36.450;2023-09-12T09:39:19;12.15;;;8.63;;
51048;SDS011;37084;55.228;36.450;2023-09-12T09:42:28;10.77;;;7.68;;
51048;SDS011;37084;55.228;36.450;2023-09-12T09:45:43;9.55;;;7.35;;
51048;SDS011;37084;55.228;36.450;2023-09-12T09:48:49;10.00;;;7.70;;
51048;SDS011;37084;55.228;36.450;2023-09-12T09:51:51;10.27;;;7.72;;
51048;SDS011;37084;55.228;36.450;2023-09-12T09:55:03;11.60;;;8.77;;
51048;SDS011;37084;55.228;36.450;2023-09-12T09:58:09;9.80;;;7.47;;
51048;SDS011;37084;55.228;36.450;2023-09-12T10:01:28;9.43;;;7.20;;
51048;SDS011;37084;55.228;36.450;2023-09-12T10:04:32;9.18;;;7.22;;
51048;SDS011;37084;55.228;36.450;2023-09-12T10:07:37;9.32;;;7.30;;
51048;SDS011;37084;55.228;36.450;2023-09-12T10:10:40;10.45;;;7.88;;
51048;SDS011;37084;55.228;36.450;2023-09-12T10:13:44;11.20;;;7.43;;
51048;SDS011;37084;55.228;36.450;2023-09-12T10:16:56;9.77;;;7.25;;
51048;SDS011;37084;55.228;36.450;2023-09-12T10:20:04;10.57;;;7.68;;
51048;SDS011;37084;55.228;36.450;2023-09-12T10:23:23;9.48;;;6.90;;
51048;SDS011;37084;55.228;36.450;2023-09-12T10:26:31;8.77;;;6.97;;
51048;SDS011;37084;55.228;36.450;2023-09-12T10:29:36;10.38;;;7.18;;
51048;SDS011;37084;55.228;36.450;2023-09-12T10:32:39;9.40;;;6.40;;
51048;SDS011;37084;55.228;36.450;2023-09-12T10:35:42;10.02;;;6.32;;
51048;SDS011;37084;55.228;36.450;2023-09-12T10:38:47;8.93;;;6.80;;
51048;SDS011;37084;55.228;36.450;2023-09-12T10:41:51;9.32;;;6.70;;
51048;SDS011;37084;55.228;36.450;2023-09-12T10:44:54;8.20;;;6.53;;
51048;SDS011;37084;55.228;36.450;2023-09-12T10:54:42;10.50;;;7.18;;
51048;SDS011;37084;55.228;36.450;2023-09-12T11:01:23;8.15;;;6.70;;
51048;SDS011;37084;55.228;36.450;2023-09-12T11:08:42;10.07;;;6.50;;
51048;SDS011;37084;55.228;36.450;2023-09-12T11:11:46;10.82;;;7.00;;
51048;SDS011;37084;55.228;36.450;2023-09-12T11:15:04;8.23;;;6.25;;
51048;SDS011;37084;55.228;36.450;2023-09-12T11:18:06;8.32;;;6.18;;
51048;SDS011;37084;55.228;36.450;2023-09-12T11:21:09;8.55;;;6.10;;
51048;SDS011;37084;55.228;36.450;2023-09-12T11:28:35;9.38;;;6.90;;
51048;SDS011;37084;55.228;36.450;2023-09-12T11:31:36;7.93;;;5.93;;
51048;SDS011;37084;55.228;36.450;2023-09-12T11:34:43;8.63;;;6.72;;
51048;SDS011;37084;55.228;36.450;2023-09-12T11:37:55;8.18;;;6.85;;
51048;SDS011;37084;55.228;36.450;2023-09-12T11:40:58;8.10;;;6.25;;
51048;SDS011;37084;55.228;36.450;2023-09-12T11:44:02;7.53;;;6.28;;
51048;SDS011;37084;55.228;36.450;2023-09-12T11:47:04;8.90;;;6.03;;
51048;SDS011;37084;55.228;36.450;2023-09-12T11:50:07;8.23;;;6.15;;
51048;SDS011;37084;55.228;36.450;2023-09-12T11:53:11;7.90;;;6.07;;
51048;SDS011;37084;55.228;36.450;2023-09-12T11:59:14;7.70;;;5.78;;
51048;SDS011;37084;55.228;36.450;2023-09-12T12:02:15;8.60;;;5.90;;
51048;SDS011;37084;55.228;36.450;2023-09-12T12:05:17;6.35;;;5.38;;
51048;SDS011;37084;55.228;36.450;2023-09-12T12:08:18;10.05;;;6.43;;
51048;SDS011;37084;55.228;36.450;2023-09-12T12:11:20;7.78;;;5.88;;
51048;SDS011;37084;55.228;36.450;2023-09-12T12:14:21;7.22;;;5.10;;
51048;SDS011;37084;55.228;36.450;2023-09-12T12:17:23;7.43;;;5.38;;
51048;SDS011;37084;55.228;36.450;2023-09-12T12:20:24;9.18;;;6.15;;
51048;SDS011;37084;55.228;36.450;2023-09-12T12:23:25;7.35;;;5.45;;
51048;SDS011;37084;55.228;36.450;2023-09-12T12:26:27;7.55;;;5.25;;
51048;SDS011;37084;55.228;36.450;2023-09-12T12:29:28;7.13;;;4.93;;
51048;SDS011;37084;55.228;36.450;2023-09-12T12:32:30;7.13;;;5.85;;
51048;SDS011;37084;55.228;36.450;2023-09-12T12:35:32;8.98;;;5.70;;
51048;SDS011;37084;55.228;36.450;2023-09-12T12:38:39;8.65;;;5.60;;
51048;SDS011;37084;55.228;36.450;2023-09-12T12:41:40;8.07;;;5.35;;
51048;SDS011;37084;55.228;36.450;2023-09-12T12:44:41;6.00;;;5.10;;
51048;SDS011;37084;55.228;36.450;2023-09-12T12:47:45;7.05;;;4.90;;
51048;SDS011;37084;55.228;36.450;2023-09-12T12:50:47;6.00;;;4.63;;
51048;SDS011;37084;55.228;36.450;2023-09-12T12:53:55;7.30;;;4.53;;
51048;SDS011;37084;55.228;36.450;2023-09-12T12:57:03;5.75;;;4.65;;
51048;SDS011;37084;55.228;36.450;2023-09-12T13:00:06;7.30;;;4.97;;
51048;SDS011;37084;55.228;36.450;2023-09-12T13:03:08;6.13;;;4.80;;
51048;SDS011;37084;55.228;36.450;2023-09-12T13:06:10;5.82;;;4.90;;
51048;SDS011;37084;55.228;36.450;2023-09-12T13:09:15;7.05;;;4.93;;
51048;SDS011;37084;55.228;36.450;2023-09-12T13:12:17;9.20;;;4.82;;
51048;SDS011;37084;55.228;36.450;2023-09-12T13:15:19;6.60;;;4.72;;
51048;SDS011;37084;55.228;36.450;2023-09-12T13:18:21;6.40;;;4.75;;
51048;SDS011;37084;55.228;36.450;2023-09-12T13:21:24;5.18;;;4.28;;
51048;SDS011;37084;55.228;36.450;2023-09-12T13:24:25;8.27;;;4.25;;
51048;SDS011;37084;55.228;36.450;2023-09-12T13:27:27;5.20;;;3.90;;
51048;SDS011;37084;55.228;36.450;2023-09-12T13:30:28;7.80;;;4.28;;
51048;SDS011;37084;55.228;36.450;2023-09-12T13:33:31;4.72;;;4.20;;
51048;SDS011;37084;55.228;36.450;2023-09-12T13:36:34;4.72;;;4.25;;
51048;SDS011;37084;55.228;36.450;2023-09-12T13:39:35;9.57;;;4.03;;
51048;SDS011;37084;55.228;36.450;2023-09-12T13:42:37;5.65;;;4.22;;
51048;SDS011;37084;55.228;36.450;2023-09-12T13:45:38;5.38;;;4.32;;
51048;SDS011;37084;55.228;36.450;2023-09-12T13:48:40;5.40;;;4.13;;
51048;SDS011;37084;55.228;36.450;2023-09-12T13:51:41;6.38;;;4.30;;
51048;SDS011;37084;55.228;36.450;2023-09-12T13:54:42;6.65;;;4.45;;
51048;SDS011;37084;55.228;36.450;2023-09-12T13:57:43;5.63;;;3.90;;
51048;SDS011;37084;55.228;36.450;2023-09-12T14:00:44;5.18;;;4.10;;
51048;SDS011;37084;55.228;36.450;2023-09-12T14:03:45;5.22;;;3.65;;
51048;SDS011;37084;55.228;36.450;2023-09-12T14:06:47;5.78;;;4.07;;
51048;SDS011;37084;55.228;36.450;2023-09-12T14:09:48;6.47;;;4.25;;
51048;SDS011;37084;55.228;36.450;2023-09-12T14:12:50;5.05;;;3.47;;
51048;SDS011;37084;55.228;36.450;2023-09-12T14:15:51;4.68;;;4.05;;
51048;SDS011;37084;55.228;36.450;2023-09-12T14:18:53;5.97;;;4.20;;
51048;SDS011;37084;55.228;36.450;2023-09-12T14:21:54;5.47;;;4.00;;
51048;SDS011;37084;55.228;36.450;2023-09-12T14:24:56;6.30;;;4.25;;
51048;SDS011;37084;55.228;36.450;2023-09-12T14:27:57;5.38;;;3.88;;
51048;SDS011;37084;55.228;36.450;2023-09-12T14:30:58;6.80;;;3.88;;
51048;SDS011;37084;55.228;36.450;2023-09-12T14:34:00;5.40;;;3.90;;
51048;SDS011;37084;55.228;36.450;2023-09-12T14:37:01;5.35;;;3.88;;
51048;SDS011;37084;55.228;36.450;2023-09-12T14:40:03;5.32;;;4.00;;
51048;SDS011;37084;55.228;36.450;2023-09-12T14:43:05;4.55;;;3.95;;
51048;SDS011;37084;55.228;36.450;2023-09-12T14:46:06;7.47;;;4.10;;
51048;SDS011;37084;55.228;36.450;2023-09-12T14:49:09;5.10;;;4.07;;
51048;SDS011;37084;55.228;36.450;2023-09-12T14:52:13;4.53;;;3.65;;
51048;SDS011;37084;55.228;36.450;2023-09-12T14:55:14;5.93;;;3.95;;
51048;SDS011;37084;55.228;36.450;2023-09-12T14:58:16;4.50;;;3.67;;
51048;SDS011;37084;55.228;36.450;2023-09-12T15:01:19;7.03;;;4.43;;
51048;SDS011;37084;55.228;36.450;2023-09-12T15:04:20;6.18;;;3.83;;
51048;SDS011;37084;55.228;36.450;2023-09-12T15:07:21;5.70;;;3.83;;
51048;SDS011;37084;55.228;36.450;2023-09-12T15:10:23;7.22;;;3.95;;
51048;SDS011;37084;55.228;36.450;2023-09-12T15:13:25;8.40;;;4.03;;
51048;SDS011;37084;55.228;36.450;2023-09-12T15:16:27;4.93;;;3.75;;
51048;SDS011;37084;55.228;36.450;2023-09-12T15:19:34;6.15;;;4.00;;
51048;SDS011;37084;55.228;36.450;2023-09-12T15:22:37;7.03;;;4.18;;
51048;SDS011;37084;55.228;36.450;2023-09-12T15:25:39;7.20;;;4.07;;
51048;SDS011;37084;55.228;36.450;2023-09-12T15:28:40;7.53;;;4.88;;
51048;SDS011;37084;55.228;36.450;2023-09-12T15:31:41;7.10;;;4.88;;
51048;SDS011;37084;55.228;36.450;2023-09-12T15:34:43;9.68;;;4.95;;
51048;SDS011;37084;55.228;36.450;2023-09-12T15:37:45;7.22;;;4.72;;
51048;SDS011;37084;55.228;36.450;2023-09-12T15:40:48;9.55;;;5.20;;
51048;SDS011;37084;55.228;36.450;2023-09-12T15:43:50;7.45;;;4.78;;
51048;SDS011;37084;55.228;36.450;2023-09-12T15:46:52;8.38;;;4.78;;
51048;SDS011;37084;55.228;36.450;2023-09-12T15:49:58;8.73;;;4.80;;
51048;SDS011;37084;55.228;36.450;2023-09-12T15:52:59;8.95;;;5.30;;
51048;SDS011;37084;55.228;36.450;2023-09-12T15:56:03;9.77;;;7.55;;
51048;SDS011;37084;55.228;36.450;2023-09-12T15:59:04;14.88;;;10.68;;
51048;SDS011;37084;55.228;36.450;2023-09-12T16:02:06;13.63;;;10.57;;
51048;SDS011;37084;55.228;36.450;2023-09-12T16:05:12;12.80;;;9.40;;
51048;SDS011;37084;55.228;36.450;2023-09-12T16:08:14;10.77;;;8.02;;
51048;SDS011;37084;55.228;36.450;2023-09-12T16:11:17;10.48;;;5.80;;
51048;SDS011;37084;55.228;36.450;2023-09-12T16:14:18;10.85;;;5.57;;
51048;SDS011;37084;55.228;36.450;2023-09-12T16:17:20;8.57;;;5.38;;
51048;SDS011;37084;55.228;36.450;2023-09-12T16:20:21;10.32;;;5.72;;
51048;SDS011;37084;55.228;36.450;2023-09-12T16:23:22;9.43;;;4.72;;
51048;SDS011;37084;55.228;36.450;2023-09-12T16:26:29;8.50;;;5.10;;
51048;SDS011;37084;55.228;36.450;2023-09-12T16:29:30;12.90;;;5.20;;
51048;SDS011;37084;55.228;36.450;2023-09-12T16:32:33;8.90;;;5.45;;
51048;SDS011;37084;55.228;36.450;2023-09-12T16:35:35;7.80;;;4.63;;
51048;SDS011;37084;55.228;36.450;2023-09-12T16:38:37;10.93;;;5.55;;
51048;SDS011;37084;55.228;36.450;2023-09-12T16:41:40;13.55;;;8.05;;
51048;SDS011;37084;55.228;36.450;2023-09-12T16:44:41;15.60;;;7.15;;
51048;SDS011;37084;55.228;36.450;2023-09-12T16:47:43;18.30;;;12.73;;
51048;SDS011;37084;55.228;36.450;2023-09-12T16:50:46;15.45;;;8.40;;
51048;SDS011;37084;55.228;36.450;2023-09-12T16:53:49;10.45;;;6.50;;
51048;SDS011;37084;55.228;36.450;2023-09-12T16:56:51;11.27;;;6.40;;
51048;SDS011;37084;55.228;36.450;2023-09-12T16:59:52;14.88;;;8.77;;
51048;SDS011;37084;55.228;36.450;2023-09-12T17:02:53;18.73;;;12.20;;
51048;SDS011;37084;55.228;36.450;2023-09-12T17:05:55;16.63;;;9.88;;
51048;SDS011;37084;55.228;36.450;2023-09-12T17:08:56;13.13;;;8.90;;
51048;SDS011;37084;55.228;36.450;2023-09-12T17:11:59;17.25;;;8.65;;
51048;SDS011;37084;55.228;36.450;2023-09-12T17:15:03;14.77;;;6.63;;
51048;SDS011;37084;55.228;36.450;2023-09-12T17:18:05;10.77;;;5.57;;
51048;SDS011;37084;55.228;36.450;2023-09-12T17:21:07;11.30;;;5.80;;
51048;SDS011;37084;55.228;36.450;2023-09-12T17:24:08;12.57;;;5.95;;
51048;SDS011;37084;55.228;36.450;2023-09-12T17:27:13;12.30;;;6.22;;
51048;SDS011;37084;55.228;36.450;2023-09-12T17:30:15;26.63;;;17.27;;
51048;SDS011;37084;55.228;36.450;2023-09-12T17:33:17;30.90;;;20.40;;
51048;SDS011;37084;55.228;36.450;2023-09-12T17:36:19;40.72;;;27.98;;
51048;SDS011;37084;55.228;36.450;2023-09-12T17:39:20;32.38;;;21.83;;
51048;SDS011;37084;55.228;36.450;2023-09-12T17:42:22;44.85;;;28.38;;
51048;SDS011;37084;55.228;36.450;2023-09-12T17:45:26;50.83;;;34.60;;
51048;SDS011;37084;55.228;36.450;2023-09-12T17:48:34;79.20;;;54.53;;
51048;SDS011;37084;55.228;36.450;2023-09-12T17:51:43;85.05;;;57.78;;
51048;SDS011;37084;55.228;36.450;2023-09-12T17:54:46;49.25;;;33.70;;
51048;SDS011;37084;55.228;36.450;2023-09-12T17:57:48;20.90;;;12.60;;
51048;SDS011;37084;55.228;36.450;2023-09-12T18:00:56;15.88;;;7.40;;
51048;SDS011;37084;55.228;36.450;2023-09-12T18:03:58;9.88;;;6.50;;
51048;SDS011;37084;55.228;36.450;2023-09-12T18:07:01;15.57;;;8.35;;
51048;SDS011;37084;55.228;36.450;2023-09-12T18:10:04;38.63;;;24.80;;
51048;SDS011;37084;55.228;36.450;2023-09-12T18:13:08;34.63;;;22.00;;
51048;SDS011;37084;55.228;36.450;2023-09-12T18:16:13;26.17;;;15.68;;
51048;SDS011;37084;55.228;36.450;2023-09-12T18:19:17;15.23;;;7.90;;